Time;durP1;ratioP1;P1;durP2;ratioP2;P2;SDS_P1;SDS_P2;PMS_P1;PMS_P2;Temp;Humidity;BMP_temperature;BMP_pressure;BME280_temperature;BME280_humidity;BME280_pressure;Samples;Min_cycle;Max_cycle;Signal;HPM_P1;HPM_P2
2021/09/17 00:01:59;;;;;;;5.00;4.40;;;22.00;69.50;;;;;;6301339;28;20431;-34
2021/09/17 00:05:00;;;;;;;4.40;4.00;;;22.00;69.50;;;;;;6301896;28;20055;-34
2021/09/17 00:08:00;;;;;;;4.85;4.35;;;22.00;69.50;;;;;;6301663;28;20025;-34
2021/09/17 00:11:01;;;;;;;7.13;4.68;;;22.00;69.50;;;;;;6301071;28;20355;-34
2021/09/17 00:14:02;;;;;;;4.63;4.10;;;21.90;69.50;;;;;;6302002;28;20460;-34
2021/09/17 00:17:02;;;;;;;5.80;4.28;;;21.90;69.50;;;;;;6300816;28;20060;-34
2021/09/17 00:20:04;;;;;;;4.60;4.07;;;21.90;69.50;;;;;;6300907;28;20025;-35
2021/09/17 00:23:05;;;;;;;6.72;4.57;;;21.90;69.50;;;;;;6300597;28;20036;-34
2021/09/17 00:26:06;;;;;;;6.05;4.55;;;21.90;69.60;;;;;;6301635;28;20048;-35
2021/09/17 00:29:07;;;;;;;4.47;4.07;;;21.90;69.60;;;;;;6300372;28;20021;-35
2021/09/17 00:32:07;;;;;;;4.88;4.38;;;21.90;69.70;;;;;;6301500;28;20055;-35
2021/09/17 00:35:09;;;;;;;6.05;4.40;;;21.80;69.70;;;;;;6300253;28;20072;-34
2021/09/17 00:38:09;;;;;;;4.70;4.10;;;21.80;69.60;;;;;;6301153;28;20028;-34
2021/09/17 00:41:11;;;;;;;5.38;3.80;;;21.80;69.70;;;;;;6301572;28;20404;-34
2021/09/17 00:44:11;;;;;;;7.00;5.20;;;21.80;69.70;;;;;;6300248;28;20031;-34
2021/09/17 00:47:12;;;;;;;5.05;4.40;;;21.80;69.80;;;;;;6299119;28;20029;-34
2021/09/17 00:50:14;;;;;;;6.32;5.10;;;21.70;69.80;;;;;;6299719;28;20025;-34
2021/09/17 00:53:15;;;;;;;4.97;4.47;;;21.80;69.80;;;;;;6301093;28;20043;-34
2021/09/17 00:56:15;;;;;;;5.30;4.30;;;21.70;69.80;;;;;;6299069;28;20324;-34
2021/09/17 00:59:17;;;;;;;5.03;4.25;;;21.70;69.80;;;;;;6299679;28;20358;-34
2021/09/17 01:02:18;;;;;;;4.72;4.20;;;21.70;69.90;;;;;;6299908;28;20450;-34
2021/09/17 01:05:18;;;;;;;5.60;3.83;;;21.70;69.90;;;;;;6300819;28;20090;-34
2021/09/17 01:08:19;;;;;;;5.63;4.10;;;21.70;69.90;;;;;;6298113;28;20032;-34
2021/09/17 01:11:20;;;;;;;5.28;4.32;;;21.70;69.90;;;;;;6300491;28;20355;-34
2021/09/17 01:14:20;;;;;;;5.63;4.05;;;21.70;69.90;;;;;;6299661;28;20028;-34
2021/09/17 01:17:21;;;;;;;4.90;4.10;;;21.70;69.90;;;;;;6298350;28;20055;-34
2021/09/17 01:20:22;;;;;;;5.75;4.47;;;21.70;69.90;;;;;;6299384;28;20029;-35
2021/09/17 01:23:22;;;;;;;5.32;4.28;;;21.60;69.80;;;;;;6299360;28;20174;-38
2021/09/17 01:26:23;;;;;;;4.32;3.92;;;21.70;69.90;;;;;;6300615;28;20024;-43
2021/09/17 01:29:24;;;;;;;4.68;3.70;;;21.70;69.90;;;;;;6299229;28;20393;-36
2021/09/17 01:32:24;;;;;;;4.22;3.83;;;21.60;69.80;;;;;;6299175;28;20025;-37
2021/09/17 01:35:25;;;;;;;4.55;4.03;;;21.60;69.90;;;;;;6299304;28;20036;-36
2021/09/17 01:38:26;;;;;;;5.13;3.60;;;21.60;69.90;;;;;;6299635;28;20027;-35
2021/09/17 01:41:27;;;;;;;7.63;4.38;;;21.60;69.80;;;;;;6300482;28;20024;-37
2021/09/17 01:44:27;;;;;;;4.50;4.10;;;21.60;69.90;;;;;;6298874;28;20044;-38
2021/09/17 01:47:28;;;;;;;4.68;4.20;;;21.60;69.90;;;;;;6299410;28;20033;-35
2021/09/17 01:50:29;;;;;;;5.63;3.95;;;21.60;70.00;;;;;;6299217;28;20028;-39
2021/09/17 01:53:29;;;;;;;4.22;3.50;;;21.60;70.00;;;;;;6300001;28;20111;-36
2021/09/17 01:56:31;;;;;;;4.50;3.63;;;21.50;70.00;;;;;;6298427;28;20039;-36
2021/09/17 01:59:32;;;;;;;4.03;3.50;;;21.50;70.00;;;;;;6299224;28;20032;-38
2021/09/17 02:02:33;;;;;;;4.72;3.50;;;21.50;70.00;;;;;;6298606;28;20074;-35
2021/09/17 02:05:33;;;;;;;4.53;3.50;;;21.50;70.00;;;;;;6299534;28;20387;-35
2021/09/17 02:08:34;;;;;;;5.40;3.60;;;21.50;70.00;;;;;;6297047;28;20028;-35
2021/09/17 02:11:34;;;;;;;4.53;3.60;;;21.50;70.20;;;;;;6318235;28;20020;-39
2021/09/17 02:14:35;;;;;;;4.28;3.20;;;21.50;70.00;;;;;;6324593;28;20043;-42
2021/09/17 02:17:36;;;;;;;4.97;3.95;;;21.50;70.10;;;;;;6323103;28;20046;-36
2021/09/17 02:20:36;;;;;;;3.42;3.13;;;21.50;70.10;;;;;;6324336;28;20099;-35
2021/09/17 02:23:37;;;;;;;3.83;3.42;;;21.50;70.10;;;;;;6323405;28;20040;-34
2021/09/17 02:26:37;;;;;;;4.82;3.45;;;21.50;70.10;;;;;;6324236;28;20120;-37
2021/09/17 02:29:38;;;;;;;4.30;3.58;;;21.40;70.10;;;;;;6322916;28;20027;-39
2021/09/17 02:32:39;;;;;;;3.60;3.30;;;21.50;70.10;;;;;;6316531;28;20021;-35
2021/09/17 02:35:39;;;;;;;3.58;3.20;;;21.50;70.00;;;;;;6273256;28;20029;-35
2021/09/17 02:38:40;;;;;;;4.53;3.33;;;21.40;70.10;;;;;;6273930;28;20053;-35
2021/09/17 02:41:41;;;;;;;3.83;3.03;;;21.40;70.00;;;;;;6273289;28;20367;-39
2021/09/17 02:44:41;;;;;;;3.78;2.78;;;21.40;70.10;;;;;;6273056;28;20025;-39
2021/09/17 02:47:42;;;;;;;3.67;3.20;;;21.40;70.10;;;;;;6274226;28;20496;-37
2021/09/17 02:50:43;;;;;;;4.22;3.40;;;21.40;70.20;;;;;;6273042;28;20078;-37
2021/09/17 02:53:43;;;;;;;3.60;2.90;;;21.40;70.10;;;;;;6274168;28;20107;-35
2021/09/17 02:56:44;;;;;;;3.03;2.72;;;21.40;70.10;;;;;;6273043;28;20036;-36
2021/09/17 02:59:45;;;;;;;3.28;2.80;;;21.40;70.00;;;;;;6273335;28;20179;-36
2021/09/17 03:02:46;;;;;;;4.07;2.80;;;21.40;70.10;;;;;;6272728;28;20029;-35
2021/09/17 03:05:46;;;;;;;4.60;3.00;;;21.40;70.10;;;;;;6273100;28;20367;-35
2021/09/17 03:08:47;;;;;;;4.22;3.00;;;21.40;70.10;;;;;;6272629;28;20033;-36
2021/09/17 03:11:48;;;;;;;3.50;3.17;;;21.40;70.10;;;;;;6276191;28;20040;-39
2021/09/17 03:14:48;;;;;;;6.57;3.55;;;21.40;70.00;;;;;;6278253;28;20060;-35
2021/09/17 03:17:49;;;;;;;4.28;2.90;;;21.40;70.10;;;;;;6276966;28;20025;-34
2021/09/17 03:20:51;;;;;;;3.85;2.78;;;21.40;70.20;;;;;;6278152;28;20025;-37
2021/09/17 03:23:51;;;;;;;3.75;2.92;;;21.30;70.10;;;;;;6276254;28;20456;-37
2021/09/17 03:26:52;;;;;;;5.32;2.70;;;21.30;70.10;;;;;;6277999;28;20021;-38
2021/09/17 03:29:52;;;;;;;3.20;2.45;;;21.30;70.10;;;;;;6276690;28;20086;-35
2021/09/17 03:32:53;;;;;;;3.65;2.70;;;21.30;70.10;;;;;;6276808;28;20035;-37
2021/09/17 03:35:53;;;;;;;3.20;2.80;;;21.30;70.10;;;;;;6276975;28;20025;-43
2021/09/17 03:38:55;;;;;;;3.53;2.42;;;21.30;70.10;;;;;;6277349;28;20029;-35
2021/09/17 03:41:55;;;;;;;3.88;2.65;;;21.30;70.80;;;;;;6277005;28;20095;-35
2021/09/17 03:44:56;;;;;;;3.30;2.60;;;21.30;70.20;;;;;;6277360;28;20031;-35
2021/09/17 03:47:57;;;;;;;2.70;2.35;;;21.30;70.20;;;;;;6278274;28;20052;-35
2021/09/17 03:50:57;;;;;;;2.72;2.22;;;21.30;70.20;;;;;;6296751;28;20051;-36
2021/09/17 03:53:58;;;;;;;3.42;2.53;;;21.30;70.30;;;;;;6302450;28;20050;-35
2021/09/17 03:57:01;;;;;;;3.38;2.65;;;21.30;70.30;;;;;;6301202;28;20109;-34
2021/09/17 04:00:03;;;;;;;3.70;2.42;;;21.20;70.20;;;;;;6300717;28;20032;-34
2021/09/17 04:03:04;;;;;;;2.70;2.30;;;21.30;70.20;;;;;;6300906;28;20610;-34
2021/09/17 04:06:04;;;;;;;4.28;2.30;;;21.30;70.20;;;;;;6302135;28;20020;-34
2021/09/17 04:09:05;;;;;;;3.20;2.40;;;21.30;70.20;;;;;;6300865;28;20028;-34
2021/09/17 04:12:06;;;;;;;2.80;2.50;;;21.20;70.20;;;;;;6302258;28;20028;-34
2021/09/17 04:15:07;;;;;;;3.67;2.67;;;21.20;70.20;;;;;;6300784;28;20028;-34
2021/09/17 04:18:07;;;;;;;3.35;2.58;;;21.20;70.20;;;;;;6301378;28;20024;-34
2021/09/17 04:21:08;;;;;;;2.47;2.28;;;21.20;70.20;;;;;;6301723;28;20067;-34
2021/09/17 04:24:08;;;;;;;2.83;2.20;;;21.20;70.20;;;;;;6301260;28;20028;-35
2021/09/17 04:27:09;;;;;;;3.80;2.25;;;21.20;70.20;;;;;;6301347;28;20055;-34
2021/09/17 04:30:10;;;;;;;3.45;2.38;;;21.20;70.80;;;;;;6300495;28;20407;-34
2021/09/17 04:33:14;;;;;;;2.25;1.90;;;21.20;70.20;;;;;;6300614;28;20032;-35
2021/09/17 04:36:15;;;;;;;2.92;2.35;;;21.20;70.20;;;;;;6300489;28;20453;-35
2021/09/17 04:39:16;;;;;;;2.47;2.20;;;21.20;70.20;;;;;;6300965;28;20036;-34
2021/09/17 04:42:16;;;;;;;3.05;2.15;;;21.20;70.20;;;;;;6299974;28;20032;-35
2021/09/17 04:45:17;;;;;;;3.58;2.65;;;21.20;70.20;;;;;;6300143;28;20024;-34
2021/09/17 04:48:17;;;;;;;3.58;2.33;;;21.20;70.20;;;;;;6299706;28;20017;-35
2021/09/17 04:51:18;;;;;;;3.03;2.25;;;21.10;70.20;;;;;;6301051;28;20447;-34
2021/09/17 04:54:18;;;;;;;3.55;2.30;;;21.10;70.30;;;;;;6300144;28;20035;-34
2021/09/17 04:57:19;;;;;;;3.42;2.53;;;21.10;70.20;;;;;;6299417;28;20043;-34
2021/09/17 05:00:20;;;;;;;2.72;2.15;;;21.20;70.20;;;;;;6301163;28;20044;-34
2021/09/17 05:03:20;;;;;;;2.78;2.17;;;21.10;70.20;;;;;;6299623;28;20051;-34
2021/09/17 05:06:21;;;;;;;2.83;2.00;;;21.10;70.30;;;;;;6300736;28;20028;-34
2021/09/17 05:09:22;;;;;;;3.80;2.50;;;21.10;70.60;;;;;;6299534;28;20031;-34
2021/09/17 05:12:22;;;;;;;3.45;2.28;;;21.10;70.40;;;;;;6301056;28;20032;-34
2021/09/17 05:15:23;;;;;;;3.20;2.28;;;21.10;70.40;;;;;;6299106;28;20047;-34
2021/09/17 05:18:23;;;;;;;2.83;2.28;;;21.10;70.30;;;;;;6300311;28;20046;-34
2021/09/17 05:21:24;;;;;;;2.30;1.92;;;21.10;70.30;;;;;;6300730;28;20051;-34
2021/09/17 05:24:25;;;;;;;3.22;2.30;;;21.00;70.40;;;;;;6299920;28;20048;-34
2021/09/17 05:27:26;;;;;;;2.72;2.10;;;21.10;70.40;;;;;;6300608;28;20028;-35
2021/09/17 05:30:27;;;;;;;3.35;2.20;;;21.10;70.40;;;;;;6298811;28;20374;-34
2021/09/17 05:33:27;;;;;;;2.80;2.00;;;21.10;70.40;;;;;;6298781;28;20028;-34
2021/09/17 05:36:28;;;;;;;3.50;2.60;;;21.00;70.30;;;;;;6299133;28;20048;-34
2021/09/17 05:39:29;;;;;;;2.92;2.20;;;21.00;70.30;;;;;;6300166;28;20066;-35
2021/09/17 05:42:29;;;;;;;3.03;2.05;;;21.00;70.40;;;;;;6299703;28;20021;-34
2021/09/17 05:45:30;;;;;;;2.80;2.15;;;21.00;70.40;;;;;;6299992;28;20070;-38
2021/09/17 05:48:30;;;;;;;3.30;2.42;;;21.00;70.40;;;;;;6298688;28;20040;-34
2021/09/17 05:51:31;;;;;;;2.20;2.00;;;21.00;70.40;;;;;;6300004;28;20021;-34
2021/09/17 05:54:32;;;;;;;3.67;2.10;;;21.00;70.40;;;;;;6299998;28;20024;-35
2021/09/17 05:57:33;;;;;;;2.58;2.13;;;21.00;70.30;;;;;;6298653;28;20039;-34
2021/09/17 06:00:35;;;;;;;2.92;2.10;;;21.00;70.40;;;;;;6299638;28;20032;-35
2021/09/17 06:03:36;;;;;;;2.88;2.00;;;21.00;70.40;;;;;;6298765;28;20044;-34
2021/09/17 06:06:36;;;;;;;2.90;2.20;;;21.00;70.40;;;;;;6299492;28;20036;-34
2021/09/17 06:09:37;;;;;;;4.07;2.60;;;21.00;70.50;;;;;;6298472;28;20071;-34
2021/09/17 06:12:39;;;;;;;2.55;2.28;;;21.00;70.40;;;;;;6299706;28;20025;-34
2021/09/17 06:15:39;;;;;;;2.75;2.10;;;21.00;70.40;;;;;;6281320;28;20036;-34
2021/09/17 06:18:40;;;;;;;2.45;2.03;;;21.00;70.30;;;;;;6299285;28;20025;-34
2021/09/17 06:21:41;;;;;;;2.83;2.20;;;21.00;70.30;;;;;;6298444;28;20040;-34
2021/09/17 06:24:41;;;;;;;2.40;2.20;;;21.00;70.30;;;;;;6299540;28;20253;-34
2021/09/17 06:27:44;;;;;;;2.28;2.03;;;21.00;70.20;;;;;;6299560;28;20086;-34
2021/09/17 06:30:45;;;;;;;2.53;2.10;;;21.00;70.30;;;;;;6297844;28;20028;-34
2021/09/17 06:33:46;;;;;;;3.10;2.20;;;21.00;70.30;;;;;;6286496;28;20064;-35
2021/09/17 06:36:46;;;;;;;2.65;2.40;;;21.00;70.30;;;;;;6273665;28;20040;-34
2021/09/17 06:39:47;;;;;;;2.20;1.80;;;21.00;70.20;;;;;;6274248;28;20028;-34
2021/09/17 06:42:48;;;;;;;2.80;1.85;;;21.00;70.20;;;;;;6273456;28;20086;-34
2021/09/17 06:45:48;;;;;;;2.97;1.95;;;21.00;70.80;;;;;;6275007;28;20029;-34
2021/09/17 06:48:49;;;;;;;2.20;1.77;;;21.00;70.20;;;;;;6277970;28;20041;-34
2021/09/17 06:51:49;;;;;;;2.78;2.00;;;21.00;70.10;;;;;;6279294;28;20102;-34
2021/09/17 06:54:50;;;;;;;2.90;2.25;;;21.00;70.10;;;;;;6278385;28;20465;-34
2021/09/17 06:57:53;;;;;;;4.32;2.38;;;21.00;70.10;;;;;;6278265;28;20044;-34
2021/09/17 07:00:53;;;;;;;2.65;1.85;;;21.00;70.00;;;;;;6278826;28;20120;-34
2021/09/17 07:03:54;;;;;;;4.82;2.30;;;21.00;70.00;;;;;;6278026;28;20049;-34
2021/09/17 07:06:54;;;;;;;2.45;1.92;;;21.00;70.00;;;;;;6278348;28;20036;-34
2021/09/17 07:09:55;;;;;;;2.67;2.00;;;21.00;70.00;;;;;;6277280;28;20021;-34
2021/09/17 07:12:55;;;;;;;2.60;2.05;;;21.00;70.10;;;;;;6278821;28;20028;-34
2021/09/17 07:15:56;;;;;;;3.20;2.13;;;21.00;70.10;;;;;;6278121;28;20025;-34
2021/09/17 07:18:57;;;;;;;3.10;1.83;;;21.00;70.10;;;;;;6278396;28;20036;-34
2021/09/17 07:21:57;;;;;;;2.67;2.00;;;21.00;70.10;;;;;;6277689;28;20040;-34
2021/09/17 07:24:58;;;;;;;2.75;1.70;;;21.00;70.10;;;;;;6278300;28;20028;-34
2021/09/17 07:27:58;;;;;;;3.28;1.90;;;21.00;70.10;;;;;;6277951;28;20025;-34
2021/09/17 07:31:00;;;;;;;3.60;2.00;;;21.00;70.00;;;;;;6277447;28;20021;-35
2021/09/17 07:34:00;;;;;;;2.88;2.05;;;21.00;70.00;;;;;;6277053;28;20029;-34
2021/09/17 07:37:01;;;;;;;2.55;2.00;;;21.00;70.00;;;;;;6277117;28;20028;-34
2021/09/17 07:40:02;;;;;;;3.45;2.13;;;21.00;70.10;;;;;;6277745;28;20056;-34
2021/09/17 07:43:03;;;;;;;2.42;1.88;;;21.00;70.00;;;;;;6277275;28;20057;-34
2021/09/17 07:46:05;;;;;;;2.42;2.00;;;21.00;70.00;;;;;;6277466;28;20086;-34
2021/09/17 07:49:06;;;;;;;3.50;2.00;;;21.10;70.00;;;;;;6276738;28;20039;-34
2021/09/17 07:52:07;;;;;;;3.42;2.00;;;21.10;70.00;;;;;;6276894;28;20021;-34
2021/09/17 07:55:08;;;;;;;3.20;2.15;;;21.10;70.00;;;;;;6276159;28;20112;-34
2021/09/17 07:58:09;;;;;;;3.25;2.05;;;21.00;69.90;;;;;;6276835;28;20029;-35
2021/09/17 08:01:10;;;;;;;2.65;2.25;;;21.10;69.90;;;;;;6275689;28;20040;-35
2021/09/17 08:04:10;;;;;;;3.97;2.10;;;21.10;69.90;;;;;;6287135;28;20080;-35
2021/09/17 08:07:11;;;;;;;5.25;2.20;;;21.10;69.80;;;;;;6299834;28;20032;-36
2021/09/17 08:10:12;;;;;;;3.42;2.30;;;21.10;70.30;;;;;;6298454;28;20100;-36
2021/09/17 08:13:12;;;;;;;5.30;2.28;;;21.10;70.20;;;;;;6302139;28;20086;-36
2021/09/17 08:16:13;;;;;;;2.47;1.85;;;21.20;70.10;;;;;;6300620;28;20413;-36
2021/09/17 08:19:13;;;;;;;2.80;1.80;;;21.20;70.00;;;;;;6301435;28;20093;-36
2021/09/17 08:22:14;;;;;;;5.47;2.20;;;21.20;70.10;;;;;;6299925;28;20025;-36
2021/09/17 08:25:14;;;;;;;9.98;2.97;;;21.20;70.10;;;;;;6301575;28;20079;-36
2021/09/17 08:28:15;;;;;;;16.70;3.85;;;21.20;70.20;;;;;;6295391;28;20067;-35
2021/09/17 08:31:16;;;;;;;15.13;4.50;;;21.20;70.60;;;;;;6300361;28;20082;-36
2021/09/17 08:34:16;;;;;;;20.05;5.20;;;21.30;70.60;;;;;;6283382;28;20028;-36
2021/09/17 08:37:17;;;;;;;24.05;5.32;;;21.20;70.30;;;;;;6274419;28;20023;-44
2021/09/17 08:40:18;;;;;;;19.83;5.20;;;21.30;70.80;;;;;;6275819;28;20094;-35
2021/09/17 08:43:19;;;;;;;24.38;6.68;;;21.30;70.60;;;;;;6274949;28;20044;-35
2021/09/17 08:46:19;;;;;;;20.88;6.03;;;21.30;70.60;;;;;;6275013;28;20356;-36
2021/09/17 08:49:23;;;;;;;18.42;5.00;;;21.30;70.80;;;;;;6274071;28;20017;-35
2021/09/17 08:52:23;;;;;;;18.17;5.25;;;21.30;70.90;;;;;;6274964;28;20391;-35
2021/09/17 08:55:24;;;;;;;19.90;4.50;;;21.30;70.80;;;;;;6274943;28;20094;-35
2021/09/17 08:58:24;;;;;;;17.17;4.63;;;21.30;71.20;;;;;;6274774;28;20029;-35
2021/09/17 09:01:26;;;;;;;17.77;4.68;;;21.30;70.90;;;;;;6274970;28;20036;-35
2021/09/17 09:04:40;;;;;;;14.30;4.25;;;21.40;71.10;;;;;;6274086;28;20084;-35
2021/09/17 09:07:41;;;;;;;24.90;5.40;;;21.40;71.10;;;;;;6274359;28;20501;-35
2021/09/17 09:10:42;;;;;;;15.18;5.32;;;21.40;70.90;;;;;;6294939;28;20025;-36
2021/09/17 09:13:59;;;;;;;13.13;4.00;;;21.40;71.60;;;;;;6299686;28;20036;-35
2021/09/17 09:17:03;;;;;;;18.98;4.63;;;21.40;71.00;;;;;;6297429;28;20102;-35
2021/09/17 09:20:43;;;;;;;13.68;4.68;;;21.40;71.10;;;;;;6299541;28;20016;-35
2021/09/17 09:23:44;;;;;;;15.80;4.55;;;21.40;70.80;;;;;;6298242;28;20036;-35
2021/09/17 09:26:45;;;;;;;16.85;4.60;;;21.50;70.60;;;;;;6298143;28;20387;-34
2021/09/17 09:29:48;;;;;;;15.90;3.88;;;21.60;70.90;;;;;;6298129;28;20025;-34
2021/09/17 09:32:48;;;;;;;16.48;3.60;;;21.60;70.80;;;;;;6294182;28;20055;-35
2021/09/17 09:36:02;;;;;;;11.43;4.28;;;21.70;70.20;;;;;;6273476;28;20035;-34
2021/09/17 09:39:03;;;;;;;17.00;4.22;;;21.70;70.40;;;;;;6274253;28;20021;-34
2021/09/17 09:42:07;;;;;;;16.27;3.72;;;21.80;70.40;;;;;;6273386;28;20098;-34
2021/09/17 09:45:17;;;;;;;13.60;3.25;;;21.80;70.60;;;;;;6273052;28;20440;-34
2021/09/17 09:48:18;;;;;;;9.32;3.60;;;21.80;70.30;;;;;;6273040;28;20032;-34
2021/09/17 09:51:18;;;;;;;21.27;3.60;;;21.80;70.50;;;;;;6273195;28;20060;-34
2021/09/17 09:54:20;;;;;;;12.52;3.30;;;21.80;70.60;;;;;;6274297;28;20056;-35
2021/09/17 09:57:20;;;;;;;13.60;3.25;;;21.90;70.40;;;;;;6273072;28;20033;-35
2021/09/17 10:00:23;;;;;;;10.90;3.40;;;21.90;70.40;;;;;;6271956;28;20044;-34
2021/09/17 10:03:24;;;;;;;8.32;2.70;;;21.90;70.30;;;;;;6273037;28;20041;-34
2021/09/17 10:06:25;;;;;;;13.48;3.50;;;21.90;69.90;;;;;;6272687;28;20032;-35
2021/09/17 10:09:25;;;;;;;12.38;3.58;;;21.90;70.40;;;;;;6284865;28;20048;-34
2021/09/17 10:12:27;;;;;;;8.73;3.33;;;21.90;70.60;;;;;;6284160;28;20032;-34
2021/09/17 10:15:30;;;;;;;12.50;3.22;;;21.90;69.90;;;;;;6289974;28;20030;-34
2021/09/17 10:18:31;;;;;;;9.38;2.55;;;21.90;69.90;;;;;;6298764;28;20104;-34
2021/09/17 10:21:47;;;;;;;9.60;3.13;;;21.90;70.30;;;;;;6294691;28;20038;-34
2021/09/17 10:24:48;;;;;;;8.63;2.38;;;21.90;70.00;;;;;;6303408;28;20123;-34
2021/09/17 10:28:02;;;;;;;11.02;3.25;;;21.90;70.50;;;;;;6303262;28;20525;-34
2021/09/17 10:31:13;;;;;;;11.77;2.45;;;21.90;70.30;;;;;;6301373;28;20025;-34
2021/09/17 10:34:32;;;;;;;12.55;2.88;;;21.90;70.20;;;;;;6303772;28;20020;-34
2021/09/17 10:38:00;;;;;;;9.65;3.00;;;21.90;70.20;;;;;;6301875;28;20032;-35
2021/09/17 10:41:02;;;;;;;6.40;2.40;;;22.00;70.60;;;;;;6291238;28;20172;-35
2021/09/17 10:44:03;;;;;;;13.38;2.58;;;22.10;70.80;;;;;;6277227;28;20456;-35
2021/09/17 10:47:03;;;;;;;9.30;2.33;;;22.10;70.40;;;;;;6278061;28;20021;-35
2021/09/17 10:50:04;;;;;;;9.38;2.60;;;22.10;70.40;;;;;;6277070;28;20029;-35
2021/09/17 10:53:05;;;;;;;12.35;2.60;;;22.10;70.40;;;;;;6278524;28;20025;-35
2021/09/17 10:56:12;;;;;;;8.20;3.08;;;22.10;70.30;;;;;;6276534;28;20083;-35
2021/09/17 10:59:22;;;;;;;6.97;2.03;;;22.10;70.40;;;;;;6285573;28;20017;-35
